Nearby METAR Reports

 

EGSS - Stansted Airport, United Kingdom
Distance from station: NW 15mi, 24km
Updated: 20/04/2021 16:20
Clear
Clear
 Wind from NE
Wind: NE 5 mph , 7 km/h
Temperature: 14°C
Dew Point: 6°C
Humidity: 59%
Barometer: 1017 hPa
Clouds: Clear
Visibility: 6 miles , 10 km
2021/04/20 15:20 EGSS 201520Z AUTO 05004KT 010V120 9999 NCD 14/06 Q1017
EGMC - Southend-On-Sea, United Kingdom
Distance from station: SE 15mi, 25km
Updated: 20/04/2021 16:20
Clear
Clear
 Wind from E
Wind: E 8 mph , 13 km/h
Temperature: 13°C
Dew Point: 7°C
Humidity: 67%
Barometer: 1017 hPa
Summary: Clear
Visibility: greater than 7 miles , 10 km
2021/04/20 15:20 EGMC 201520Z 09007KT CAVOK 13/07 Q1017
 
EGLC - London City Airp, United Kingdom
Distance from station: SW 24mi, 39km
Updated: 20/04/2021 16:20
Mostly cloudy
Mostly cloudy
 Wind from E
Wind: E 13 mph , 20 km/h
Temperature: 15°C
Dew Point: 6°C
Humidity: 55%
Barometer: 1017 hPa
Clouds: Mostly cloudy
Visibility: 6 miles , 10 km
Cloud details: Mostly cloudy 1311 m
2021/04/20 15:20 EGLC 201520Z AUTO 08011KT 9999 BKN043 15/06 Q1017
EGUW - Wattisham Raf, United Kingdom
Distance from station: NE 34mi, 54km
Updated: 20/04/2021 15:50
Mostly cloudy
Mostly cloudy
 Wind from ESE
Wind: ESE 6 mph , 9 km/h
Temperature: 14°C
Dew Point: 6°C
Humidity: 59%
Barometer: 1017 hPa
Clouds: Mostly cloudy
Visibility: 6 miles , 10 km
Cloud details: Partly cloudy 914 m
Mostly cloudy 1372 m
2021/04/20 14:50 EGUW 201450Z 12005KT 9999 SCT030 BKN045 14/06 Q1017 NOSIG RMK BLU BLU
 
EGGW - Luton Airport, United Kingdom
Distance from station: WNW 37mi, 59km
Updated: 20/04/2021 16:20
Clear
Clear
 Wind from E
Wind: E 9 mph , 15 km/h
Temperature: 16°C
Dew Point: 5°C
Humidity: 48%
Barometer: 1017 hPa
Clouds: Clear
Visibility: 6 miles , 10 km
2021/04/20 15:20 EGGW 201520Z AUTO 08008KT 050V120 9999 NCD 16/05 Q1017
EGWU - Northolt Raf, United Kingdom
Distance from station: WSW 40mi, 64km
Updated: 20/04/2021 16:20
Clear
Clear
 Wind from ENE
Wind: ENE 7 mph , 11 km/h
Temperature: 16°C
Dew Point: 4°C
Humidity: 45%
Barometer: 1016 hPa
Summary: Clear
Visibility: greater than 7 miles , 10 km
2021/04/20 15:20 EGWU 201520Z 07006KT CAVOK 16/04 Q1016 NOSIG